sensor_id;sensor_type;location;lat;lon;timestamp;P1;durP1;ratioP1;P2;durP2;ratioP2
6665;SDS011;3369;49.906;8.598;2022-08-11T00:00:34;2.72;;;2.08;;
6665;SDS011;3369;49.906;8.598;2022-08-11T00:03:11;1.60;;;1.50;;
6665;SDS011;3369;49.906;8.598;2022-08-11T00:05:50;2.40;;;1.92;;
6665;SDS011;3369;49.906;8.598;2022-08-11T00:08:23;1.98;;;1.88;;
6665;SDS011;3369;49.906;8.598;2022-08-11T00:10:55;2.60;;;1.60;;
6665;SDS011;3369;49.906;8.598;2022-08-11T00:13:30;1.80;;;1.70;;
6665;SDS011;3369;49.906;8.598;2022-08-11T00:16:00;1.92;;;1.83;;
6665;SDS011;3369;49.906;8.598;2022-08-11T00:18:27;1.70;;;1.60;;
6665;SDS011;3369;49.906;8.598;2022-08-11T00:20:56;2.33;;;1.73;;
6665;SDS011;3369;49.906;8.598;2022-08-11T00:23:24;1.83;;;1.73;;
6665;SDS011;3369;49.906;8.598;2022-08-11T00:25:51;1.70;;;1.60;;
6665;SDS011;3369;49.906;8.598;2022-08-11T00:28:28;1.75;;;1.63;;
6665;SDS011;3369;49.906;8.598;2022-08-11T00:31:00;2.58;;;1.70;;
6665;SDS011;3369;49.906;8.598;2022-08-11T00:33:33;1.70;;;1.60;;
6665;SDS011;3369;49.906;8.598;2022-08-11T00:36:09;1.48;;;1.38;;
6665;SDS011;3369;49.906;8.598;2022-08-11T00:38:39;1.60;;;1.50;;
6665;SDS011;3369;49.906;8.598;2022-08-11T00:41:10;2.47;;;1.80;;
6665;SDS011;3369;49.906;8.598;2022-08-11T00:57:51;1.50;;;1.40;;
6665;SDS011;3369;49.906;8.598;2022-08-11T01:09:19;2.17;;;1.98;;
6665;SDS011;3369;49.906;8.598;2022-08-11T01:31:55;1.75;;;1.65;;
6665;SDS011;3369;49.906;8.598;2022-08-11T01:59:42;2.17;;;2.00;;
6665;SDS011;3369;49.906;8.598;2022-08-11T02:08:02;2.17;;;1.98;;
6665;SDS011;3369;49.906;8.598;2022-08-11T02:10:56;2.10;;;1.85;;
6665;SDS011;3369;49.906;8.598;2022-08-11T02:16:49;2.90;;;2.70;;
6665;SDS011;3369;49.906;8.598;2022-08-11T02:19:42;2.90;;;2.60;;
6665;SDS011;3369;49.906;8.598;2022-08-11T02:25:37;2.73;;;2.30;;
6665;SDS011;3369;49.906;8.598;2022-08-11T02:36:41;2.45;;;2.30;;
6665;SDS011;3369;49.906;8.598;2022-08-11T02:39:22;2.92;;;2.70;;
6665;SDS011;3369;49.906;8.598;2022-08-11T02:42:19;2.67;;;2.47;;
6665;SDS011;3369;49.906;8.598;2022-08-11T03:08:02;3.40;;;3.03;;
6665;SDS011;3369;49.906;8.598;2022-08-11T03:10:53;4.85;;;3.50;;
6665;SDS011;3369;49.906;8.598;2022-08-11T03:14:14;3.17;;;2.92;;
6665;SDS011;3369;49.906;8.598;2022-08-11T03:17:24;4.63;;;3.00;;
6665;SDS011;3369;49.906;8.598;2022-08-11T03:26:13;2.92;;;2.63;;
6665;SDS011;3369;49.906;8.598;2022-08-11T03:28:44;4.10;;;2.90;;
6665;SDS011;3369;49.906;8.598;2022-08-11T03:31:33;4.55;;;2.72;;
6665;SDS011;3369;49.906;8.598;2022-08-11T03:34:06;2.57;;;2.37;;
6665;SDS011;3369;49.906;8.598;2022-08-11T03:42:17;2.83;;;2.53;;
6665;SDS011;3369;49.906;8.598;2022-08-11T03:45:16;3.60;;;2.60;;
6665;SDS011;3369;49.906;8.598;2022-08-11T03:48:18;2.50;;;2.30;;
6665;SDS011;3369;49.906;8.598;2022-08-11T03:53:54;2.57;;;2.37;;
6665;SDS011;3369;49.906;8.598;2022-08-11T04:10:45;2.50;;;2.30;;
6665;SDS011;3369;49.906;8.598;2022-08-11T04:13:49;2.65;;;2.22;;
6665;SDS011;3369;49.906;8.598;2022-08-11T04:26:20;2.87;;;2.50;;
6665;SDS011;3369;49.906;8.598;2022-08-11T04:37:08;3.37;;;2.97;;
6665;SDS011;3369;49.906;8.598;2022-08-11T05:00:49;2.40;;;2.20;;
6665;SDS011;3369;49.906;8.598;2022-08-11T05:10:09;3.03;;;2.53;;
6665;SDS011;3369;49.906;8.598;2022-08-11T05:12:59;2.60;;;2.40;;
6665;SDS011;3369;49.906;8.598;2022-08-11T05:15:48;3.50;;;2.57;;
6665;SDS011;3369;49.906;8.598;2022-08-11T05:19:11;2.97;;;2.67;;
6665;SDS011;3369;49.906;8.598;2022-08-11T05:21:52;3.07;;;2.77;;
6665;SDS011;3369;49.906;8.598;2022-08-11T05:24:43;2.50;;;2.30;;
6665;SDS011;3369;49.906;8.598;2022-08-11T05:27:49;2.53;;;2.23;;
6665;SDS011;3369;49.906;8.598;2022-08-11T05:30:43;3.80;;;2.57;;
6665;SDS011;3369;49.906;8.598;2022-08-11T05:33:37;2.47;;;2.27;;
6665;SDS011;3369;49.906;8.598;2022-08-11T05:39:09;2.80;;;2.60;;
6665;SDS011;3369;49.906;8.598;2022-08-11T05:42:06;2.90;;;2.70;;
6665;SDS011;3369;49.906;8.598;2022-08-11T05:44:53;3.08;;;2.83;;
6665;SDS011;3369;49.906;8.598;2022-08-11T05:47:42;4.05;;;2.97;;
6665;SDS011;3369;49.906;8.598;2022-08-11T05:50:31;3.13;;;2.93;;
6665;SDS011;3369;49.906;8.598;2022-08-11T05:53:15;3.70;;;2.17;;
6665;SDS011;3369;49.906;8.598;2022-08-11T05:56:02;3.23;;;2.93;;
6665;SDS011;3369;49.906;8.598;2022-08-11T05:58:53;2.45;;;2.25;;
6665;SDS011;3369;49.906;8.598;2022-08-11T06:01:23;2.70;;;2.50;;
6665;SDS011;3369;49.906;8.598;2022-08-11T06:03:57;2.50;;;2.30;;
6665;SDS011;3369;49.906;8.598;2022-08-11T06:06:45;2.80;;;2.60;;
6665;SDS011;3369;49.906;8.598;2022-08-11T06:09:22;2.93;;;2.73;;
6665;SDS011;3369;49.906;8.598;2022-08-11T06:11:49;2.80;;;2.60;;
6665;SDS011;3369;49.906;8.598;2022-08-11T06:14:18;2.80;;;2.40;;
6665;SDS011;3369;49.906;8.598;2022-08-11T06:16:47;2.67;;;2.47;;
6665;SDS011;3369;49.906;8.598;2022-08-11T06:19:14;2.20;;;2.08;;
6665;SDS011;3369;49.906;8.598;2022-08-11T06:21:46;3.25;;;2.30;;
6665;SDS011;3369;49.906;8.598;2022-08-11T06:24:15;3.30;;;2.25;;
6665;SDS011;3369;49.906;8.598;2022-08-11T06:26:46;2.50;;;2.30;;
6665;SDS011;3369;49.906;8.598;2022-08-11T06:29:14;2.53;;;2.40;;
6665;SDS011;3369;49.906;8.598;2022-08-11T06:31:42;2.55;;;2.35;;
6665;SDS011;3369;49.906;8.598;2022-08-11T06:34:34;2.28;;;1.90;;
6665;SDS011;3369;49.906;8.598;2022-08-11T06:37:17;3.97;;;2.63;;
6665;SDS011;3369;49.906;8.598;2022-08-11T06:40:03;2.05;;;1.95;;
6665;SDS011;3369;49.906;8.598;2022-08-11T06:48:15;2.75;;;2.30;;
6665;SDS011;3369;49.906;8.598;2022-08-11T06:50:50;2.67;;;2.47;;
6665;SDS011;3369;49.906;8.598;2022-08-11T06:53:45;2.40;;;2.10;;
6665;SDS011;3369;49.906;8.598;2022-08-11T06:56:15;2.40;;;2.20;;
6665;SDS011;3369;49.906;8.598;2022-08-11T06:59:05;2.50;;;2.28;;
6665;SDS011;3369;49.906;8.598;2022-08-11T07:02:10;2.13;;;1.90;;
6665;SDS011;3369;49.906;8.598;2022-08-11T07:04:48;2.22;;;2.03;;
6665;SDS011;3369;49.906;8.598;2022-08-11T07:13:35;2.13;;;1.92;;
6665;SDS011;3369;49.906;8.598;2022-08-11T07:16:25;2.75;;;1.92;;
6665;SDS011;3369;49.906;8.598;2022-08-11T07:19:02;2.47;;;2.28;;
6665;SDS011;3369;49.906;8.598;2022-08-11T07:21:48;2.58;;;2.38;;
6665;SDS011;3369;49.906;8.598;2022-08-11T07:24:38;2.55;;;2.35;;
6665;SDS011;3369;49.906;8.598;2022-08-11T07:27:27;2.65;;;2.35;;
6665;SDS011;3369;49.906;8.598;2022-08-11T07:30:24;2.05;;;1.88;;
6665;SDS011;3369;49.906;8.598;2022-08-11T07:32:51;3.60;;;2.35;;
6665;SDS011;3369;49.906;8.598;2022-08-11T07:35:21;3.15;;;2.13;;
6665;SDS011;3369;49.906;8.598;2022-08-11T07:37:56;2.28;;;2.05;;
6665;SDS011;3369;49.906;8.598;2022-08-11T07:40:26;2.25;;;2.05;;
6665;SDS011;3369;49.906;8.598;2022-08-11T07:42:53;2.20;;;2.00;;
6665;SDS011;3369;49.906;8.598;2022-08-11T07:45:20;2.13;;;1.85;;
6665;SDS011;3369;49.906;8.598;2022-08-11T07:48:06;2.05;;;1.92;;
6665;SDS011;3369;49.906;8.598;2022-08-11T07:50:52;2.47;;;1.85;;
6665;SDS011;3369;49.906;8.598;2022-08-11T07:53:37;3.50;;;2.30;;
6665;SDS011;3369;49.906;8.598;2022-08-11T07:56:04;2.90;;;2.05;;
6665;SDS011;3369;49.906;8.598;2022-08-11T07:58:30;4.05;;;2.30;;
6665;SDS011;3369;49.906;8.598;2022-08-11T08:01:19;2.53;;;2.17;;
6665;SDS011;3369;49.906;8.598;2022-08-11T08:04:05;2.00;;;1.90;;
6665;SDS011;3369;49.906;8.598;2022-08-11T08:06:52;4.35;;;2.60;;
6665;SDS011;3369;49.906;8.598;2022-08-11T08:09:36;2.83;;;2.13;;
6665;SDS011;3369;49.906;8.598;2022-08-11T08:12:21;2.13;;;1.90;;
6665;SDS011;3369;49.906;8.598;2022-08-11T08:15:08;2.75;;;2.08;;
6665;SDS011;3369;49.906;8.598;2022-08-11T08:17:58;1.98;;;1.88;;
6665;SDS011;3369;49.906;8.598;2022-08-11T08:20:30;2.17;;;1.88;;
6665;SDS011;3369;49.906;8.598;2022-08-11T08:23:01;2.13;;;1.92;;
6665;SDS011;3369;49.906;8.598;2022-08-11T08:25:29;2.65;;;1.70;;
6665;SDS011;3369;49.906;8.598;2022-08-11T08:27:57;3.13;;;1.88;;
6665;SDS011;3369;49.906;8.598;2022-08-11T08:30:24;2.15;;;1.95;;
6665;SDS011;3369;49.906;8.598;2022-08-11T08:33:14;2.50;;;2.20;;
6665;SDS011;3369;49.906;8.598;2022-08-11T08:35:43;2.40;;;2.20;;
6665;SDS011;3369;49.906;8.598;2022-08-11T08:38:10;2.28;;;2.08;;
6665;SDS011;3369;49.906;8.598;2022-08-11T08:40:37;2.70;;;2.35;;
6665;SDS011;3369;49.906;8.598;2022-08-11T08:43:09;3.28;;;2.08;;
6665;SDS011;3369;49.906;8.598;2022-08-11T08:45:41;2.25;;;2.15;;
6665;SDS011;3369;49.906;8.598;2022-08-11T08:48:10;2.17;;;2.00;;
6665;SDS011;3369;49.906;8.598;2022-08-11T08:50:43;4.13;;;2.17;;
6665;SDS011;3369;49.906;8.598;2022-08-11T08:53:33;2.47;;;2.28;;
6665;SDS011;3369;49.906;8.598;2022-08-11T08:56:00;2.08;;;1.90;;
6665;SDS011;3369;49.906;8.598;2022-08-11T08:58:26;2.15;;;1.98;;
6665;SDS011;3369;49.906;8.598;2022-08-11T09:00:54;2.10;;;1.90;;
6665;SDS011;3369;49.906;8.598;2022-08-11T09:03:22;2.35;;;2.10;;
6665;SDS011;3369;49.906;8.598;2022-08-11T09:05:49;2.50;;;2.30;;
6665;SDS011;3369;49.906;8.598;2022-08-11T09:08:19;4.30;;;2.20;;
6665;SDS011;3369;49.906;8.598;2022-08-11T09:10:47;2.47;;;1.90;;
6665;SDS011;3369;49.906;8.598;2022-08-11T09:13:34;1.98;;;1.80;;
6665;SDS011;3369;49.906;8.598;2022-08-11T09:16:01;2.38;;;2.17;;
6665;SDS011;3369;49.906;8.598;2022-08-11T09:18:29;5.43;;;2.55;;
6665;SDS011;3369;49.906;8.598;2022-08-11T09:20:56;2.97;;;1.95;;
6665;SDS011;3369;49.906;8.598;2022-08-11T09:23:22;2.55;;;2.35;;
6665;SDS011;3369;49.906;8.598;2022-08-11T09:26:07;3.05;;;2.42;;
6665;SDS011;3369;49.906;8.598;2022-08-11T09:28:53;2.50;;;2.38;;
6665;SDS011;3369;49.906;8.598;2022-08-11T09:31:19;3.05;;;2.20;;
6665;SDS011;3369;49.906;8.598;2022-08-11T09:33:47;2.60;;;2.03;;
6665;SDS011;3369;49.906;8.598;2022-08-11T09:36:16;3.28;;;1.88;;
6665;SDS011;3369;49.906;8.598;2022-08-11T09:39:01;2.47;;;2.15;;
6665;SDS011;3369;49.906;8.598;2022-08-11T09:41:48;2.60;;;1.98;;
6665;SDS011;3369;49.906;8.598;2022-08-11T09:44:14;2.90;;;1.65;;
6665;SDS011;3369;49.906;8.598;2022-08-11T09:46:59;4.40;;;2.03;;
6665;SDS011;3369;49.906;8.598;2022-08-11T09:49:26;2.58;;;1.63;;
6665;SDS011;3369;49.906;8.598;2022-08-11T09:51:53;2.08;;;1.60;;
6665;SDS011;3369;49.906;8.598;2022-08-11T09:54:20;1.80;;;1.70;;
6665;SDS011;3369;49.906;8.598;2022-08-11T09:56:51;3.15;;;2.00;;
6665;SDS011;3369;49.906;8.598;2022-08-11T09:59:35;2.88;;;1.83;;
6665;SDS011;3369;49.906;8.598;2022-08-11T10:02:02;3.20;;;2.00;;
6665;SDS011;3369;49.906;8.598;2022-08-11T10:04:30;2.08;;;1.92;;
6665;SDS011;3369;49.906;8.598;2022-08-11T10:07:09;1.55;;;1.45;;
6665;SDS011;3369;49.906;8.598;2022-08-11T10:12:22;2.60;;;1.63;;
6665;SDS011;3369;49.906;8.598;2022-08-11T10:14:56;2.10;;;1.80;;
6665;SDS011;3369;49.906;8.598;2022-08-11T10:17:45;2.03;;;1.80;;
6665;SDS011;3369;49.906;8.598;2022-08-11T10:20:33;1.98;;;1.77;;
6665;SDS011;3369;49.906;8.598;2022-08-11T10:23:01;2.10;;;1.75;;
6665;SDS011;3369;49.906;8.598;2022-08-11T10:25:46;2.22;;;1.95;;
6665;SDS011;3369;49.906;8.598;2022-08-11T10:28:31;1.95;;;1.83;;
6665;SDS011;3369;49.906;8.598;2022-08-11T10:30:59;4.00;;;1.83;;
6665;SDS011;3369;49.906;8.598;2022-08-11T10:33:46;2.42;;;1.65;;
6665;SDS011;3369;49.906;8.598;2022-08-11T10:36:26;5.30;;;1.92;;
6665;SDS011;3369;49.906;8.598;2022-08-11T10:38:53;1.95;;;1.80;;
6665;SDS011;3369;49.906;8.598;2022-08-11T10:41:20;1.85;;;1.48;;
6665;SDS011;3369;49.906;8.598;2022-08-11T10:44:05;2.03;;;1.70;;
6665;SDS011;3369;49.906;8.598;2022-08-11T10:46:33;2.38;;;1.70;;
6665;SDS011;3369;49.906;8.598;2022-08-11T10:49:17;2.05;;;1.90;;
6665;SDS011;3369;49.906;8.598;2022-08-11T10:51:44;2.00;;;1.80;;
6665;SDS011;3369;49.906;8.598;2022-08-11T10:54:29;2.28;;;2.00;;
6665;SDS011;3369;49.906;8.598;2022-08-11T10:57:16;3.25;;;1.92;;
6665;SDS011;3369;49.906;8.598;2022-08-11T11:00:01;1.60;;;1.50;;
6665;SDS011;3369;49.906;8.598;2022-08-11T11:02:30;2.45;;;2.25;;
6665;SDS011;3369;49.906;8.598;2022-08-11T11:07:37;5.03;;;1.83;;
6665;SDS011;3369;49.906;8.598;2022-08-11T11:10:06;1.95;;;1.85;;
6665;SDS011;3369;49.906;8.598;2022-08-11T11:15:27;2.30;;;1.80;;
6665;SDS011;3369;49.906;8.598;2022-08-11T11:21:02;2.30;;;2.10;;
6665;SDS011;3369;49.906;8.598;2022-08-11T11:32:08;2.10;;;1.98;;
6665;SDS011;3369;49.906;8.598;2022-08-11T11:37:41;2.97;;;1.98;;
6665;SDS011;3369;49.906;8.598;2022-08-11T11:40:10;4.15;;;2.35;;
6665;SDS011;3369;49.906;8.598;2022-08-11T11:42:41;2.47;;;1.98;;
6665;SDS011;3369;49.906;8.598;2022-08-11T11:45:08;2.97;;;2.00;;
6665;SDS011;3369;49.906;8.598;2022-08-11T11:47:36;4.22;;;2.15;;
6665;SDS011;3369;49.906;8.598;2022-08-11T11:50:03;3.83;;;1.98;;
6665;SDS011;3369;49.906;8.598;2022-08-11T11:52:31;2.08;;;1.98;;
6665;SDS011;3369;49.906;8.598;2022-08-11T11:54:57;2.38;;;2.00;;
6665;SDS011;3369;49.906;8.598;2022-08-11T11:57:24;2.25;;;2.05;;
6665;SDS011;3369;49.906;8.598;2022-08-11T12:00:09;2.28;;;1.90;;
6665;SDS011;3369;49.906;8.598;2022-08-11T12:02:56;2.45;;;2.25;;
6665;SDS011;3369;49.906;8.598;2022-08-11T12:05:24;2.90;;;2.25;;
6665;SDS011;3369;49.906;8.598;2022-08-11T12:07:51;1.80;;;1.70;;
6665;SDS011;3369;49.906;8.598;2022-08-11T12:10:46;2.38;;;2.17;;
6665;SDS011;3369;49.906;8.598;2022-08-11T12:13:14;1.92;;;1.73;;
6665;SDS011;3369;49.906;8.598;2022-08-11T12:16:00;2.13;;;1.92;;
6665;SDS011;3369;49.906;8.598;2022-08-11T12:18:31;2.40;;;2.20;;
6665;SDS011;3369;49.906;8.598;2022-08-11T12:20:59;2.10;;;2.00;;
6665;SDS011;3369;49.906;8.598;2022-08-11T12:23:26;3.28;;;2.40;;
6665;SDS011;3369;49.906;8.598;2022-08-11T12:26:15;3.40;;;2.00;;
6665;SDS011;3369;49.906;8.598;2022-08-11T12:29:01;3.63;;;2.05;;
6665;SDS011;3369;49.906;8.598;2022-08-11T12:31:29;2.42;;;2.22;;
6665;SDS011;3369;49.906;8.598;2022-08-11T12:34:12;2.00;;;1.90;;
6665;SDS011;3369;49.906;8.598;2022-08-11T12:36:48;2.00;;;1.90;;
6665;SDS011;3369;49.906;8.598;2022-08-11T12:39:19;2.33;;;2.13;;
6665;SDS011;3369;49.906;8.598;2022-08-11T12:42:07;2.67;;;2.03;;
6665;SDS011;3369;49.906;8.598;2022-08-11T12:44:54;2.22;;;2.08;;
6665;SDS011;3369;49.906;8.598;2022-08-11T12:47:49;2.10;;;1.90;;
6665;SDS011;3369;49.906;8.598;2022-08-11T12:50:34;2.25;;;2.05;;
6665;SDS011;3369;49.906;8.598;2022-08-11T12:53:20;3.67;;;1.95;;
6665;SDS011;3369;49.906;8.598;2022-08-11T12:55:50;4.13;;;2.25;;
6665;SDS011;3369;49.906;8.598;2022-08-11T12:58:37;2.63;;;1.88;;
6665;SDS011;3369;49.906;8.598;2022-08-11T13:01:05;3.22;;;2.30;;
6665;SDS011;3369;49.906;8.598;2022-08-11T13:03:50;2.47;;;2.10;;
6665;SDS011;3369;49.906;8.598;2022-08-11T13:06:34;4.40;;;2.00;;
6665;SDS011;3369;49.906;8.598;2022-08-11T13:09:02;1.70;;;1.60;;
6665;SDS011;3369;49.906;8.598;2022-08-11T13:11:29;1.67;;;1.58;;
6665;SDS011;3369;49.906;8.598;2022-08-11T13:14:15;2.45;;;1.75;;
6665;SDS011;3369;49.906;8.598;2022-08-11T13:16:41;2.13;;;2.03;;
6665;SDS011;3369;49.906;8.598;2022-08-11T13:19:27;2.67;;;1.98;;
6665;SDS011;3369;49.906;8.598;2022-08-11T13:21:54;1.67;;;1.58;;
6665;SDS011;3369;49.906;8.598;2022-08-11T13:24:22;1.90;;;1.80;;
6665;SDS011;3369;49.906;8.598;2022-08-11T13:26:48;2.13;;;1.92;;
6665;SDS011;3369;49.906;8.598;2022-08-11T13:29:25;1.92;;;1.67;;
6665;SDS011;3369;49.906;8.598;2022-08-11T13:31:53;3.28;;;1.95;;
6665;SDS011;3369;49.906;8.598;2022-08-11T13:34:25;1.90;;;1.80;;
6665;SDS011;3369;49.906;8.598;2022-08-11T13:36:55;4.90;;;1.80;;
6665;SDS011;3369;49.906;8.598;2022-08-11T13:39:25;2.20;;;2.00;;
6665;SDS011;3369;49.906;8.598;2022-08-11T13:41:53;2.00;;;1.80;;
6665;SDS011;3369;49.906;8.598;2022-08-11T13:44:21;2.10;;;1.90;;
6665;SDS011;3369;49.906;8.598;2022-08-11T13:46:52;2.83;;;2.00;;
6665;SDS011;3369;49.906;8.598;2022-08-11T13:49:20;2.25;;;2.05;;
6665;SDS011;3369;49.906;8.598;2022-08-11T14:12:31;3.38;;;1.90;;
6665;SDS011;3369;49.906;8.598;2022-08-11T14:15:19;2.13;;;1.50;;
6665;SDS011;3369;49.906;8.598;2022-08-11T14:17:55;1.35;;;1.25;;
6665;SDS011;3369;49.906;8.598;2022-08-11T14:20:36;1.55;;;1.45;;
6665;SDS011;3369;49.906;8.598;2022-08-11T14:23:37;4.07;;;1.70;;
6665;SDS011;3369;49.906;8.598;2022-08-11T14:26:09;2.75;;;1.80;;
6665;SDS011;3369;49.906;8.598;2022-08-11T14:28:48;2.20;;;1.90;;
6665;SDS011;3369;49.906;8.598;2022-08-11T14:31:19;2.03;;;1.77;;
6665;SDS011;3369;49.906;8.598;2022-08-11T14:33:49;1.88;;;1.77;;
6665;SDS011;3369;49.906;8.598;2022-08-11T14:36:20;3.95;;;2.50;;
6665;SDS011;3369;49.906;8.598;2022-08-11T14:38:48;2.03;;;1.92;;
6665;SDS011;3369;49.906;8.598;2022-08-11T14:41:14;4.80;;;3.28;;
6665;SDS011;3369;49.906;8.598;2022-08-11T14:44:00;9.70;;;5.65;;
6665;SDS011;3369;49.906;8.598;2022-08-11T14:46:45;15.05;;;8.98;;
6665;SDS011;3369;49.906;8.598;2022-08-11T14:49:30;15.35;;;9.10;;
6665;SDS011;3369;49.906;8.598;2022-08-11T14:52:07;8.02;;;5.55;;
6665;SDS011;3369;49.906;8.598;2022-08-11T14:54:35;6.47;;;4.00;;
6665;SDS011;3369;49.906;8.598;2022-08-11T14:57:20;2.08;;;1.98;;
6665;SDS011;3369;49.906;8.598;2022-08-11T14:59:47;2.17;;;1.95;;
6665;SDS011;3369;49.906;8.598;2022-08-11T15:02:14;2.45;;;1.95;;
6665;SDS011;3369;49.906;8.598;2022-08-11T15:05:02;1.55;;;1.45;;
6665;SDS011;3369;49.906;8.598;2022-08-11T15:07:30;1.77;;;1.65;;
6665;SDS011;3369;49.906;8.598;2022-08-11T15:10:04;3.33;;;1.70;;
6665;SDS011;3369;49.906;8.598;2022-08-11T15:12:32;4.57;;;1.70;;
6665;SDS011;3369;49.906;8.598;2022-08-11T15:14:59;2.30;;;1.73;;
6665;SDS011;3369;49.906;8.598;2022-08-11T15:17:44;1.95;;;1.85;;
6665;SDS011;3369;49.906;8.598;2022-08-11T15:20:17;2.10;;;1.90;;
6665;SDS011;3369;49.906;8.598;2022-08-11T15:23:02;1.90;;;1.80;;
6665;SDS011;3369;49.906;8.598;2022-08-11T15:25:48;4.63;;;1.92;;
6665;SDS011;3369;49.906;8.598;2022-08-11T15:28:18;1.88;;;1.73;;
6665;SDS011;3369;49.906;8.598;2022-08-11T15:31:04;1.67;;;1.58;;
6665;SDS011;3369;49.906;8.598;2022-08-11T15:33:51;2.25;;;1.40;;
6665;SDS011;3369;49.906;8.598;2022-08-11T15:36:40;3.28;;;1.80;;
6665;SDS011;3369;49.906;8.598;2022-08-11T15:39:32;1.40;;;1.40;;
6665;SDS011;3369;49.906;8.598;2022-08-11T15:42:03;2.30;;;1.80;;
6665;SDS011;3369;49.906;8.598;2022-08-11T15:44:55;1.83;;;1.73;;
6665;SDS011;3369;49.906;8.598;2022-08-11T15:47:55;2.10;;;1.90;;
6665;SDS011;3369;49.906;8.598;2022-08-11T15:50:27;1.90;;;1.80;;
6665;SDS011;3369;49.906;8.598;2022-08-11T15:53:00;2.17;;;1.50;;
6665;SDS011;3369;49.906;8.598;2022-08-11T15:55:29;2.20;;;1.70;;
6665;SDS011;3369;49.906;8.598;2022-08-11T15:57:59;3.22;;;1.77;;
6665;SDS011;3369;49.906;8.598;2022-08-11T16:00:46;3.65;;;1.83;;
6665;SDS011;3369;49.906;8.598;2022-08-11T16:04:02;3.10;;;1.67;;
6665;SDS011;3369;49.906;8.598;2022-08-11T16:07:11;2.30;;;2.10;;
6665;SDS011;3369;49.906;8.598;2022-08-11T16:09:36;2.88;;;1.55;;
6665;SDS011;3369;49.906;8.598;2022-08-11T16:12:06;1.80;;;1.70;;
6665;SDS011;3369;49.906;8.598;2022-08-11T16:14:35;3.00;;;1.65;;
6665;SDS011;3369;49.906;8.598;2022-08-11T16:17:24;1.65;;;1.55;;
6665;SDS011;3369;49.906;8.598;2022-08-11T16:19:52;3.00;;;1.60;;
6665;SDS011;3369;49.906;8.598;2022-08-11T16:22:23;1.90;;;1.80;;
6665;SDS011;3369;49.906;8.598;2022-08-11T16:24:59;1.70;;;1.60;;
6665;SDS011;3369;49.906;8.598;2022-08-11T16:27:26;1.65;;;1.48;;
6665;SDS011;3369;49.906;8.598;2022-08-11T16:29:54;2.88;;;2.03;;
6665;SDS011;3369;49.906;8.598;2022-08-11T16:32:20;1.60;;;1.50;;
6665;SDS011;3369;49.906;8.598;2022-08-11T16:34:51;2.17;;;1.98;;
6665;SDS011;3369;49.906;8.598;2022-08-11T16:37:39;1.80;;;1.70;;
6665;SDS011;3369;49.906;8.598;2022-08-11T16:40:26;2.85;;;1.73;;
6665;SDS011;3369;49.906;8.598;2022-08-11T16:42:53;1.90;;;1.80;;
6665;SDS011;3369;49.906;8.598;2022-08-11T16:45:40;3.35;;;2.30;;
6665;SDS011;3369;49.906;8.598;2022-08-11T16:48:26;2.35;;;1.88;;
6665;SDS011;3369;49.906;8.598;2022-08-11T16:50:55;4.00;;;1.85;;
6665;SDS011;3369;49.906;8.598;2022-08-11T16:53:23;1.88;;;1.75;;
6665;SDS011;3369;49.906;8.598;2022-08-11T16:55:49;1.95;;;1.85;;
6665;SDS011;3369;49.906;8.598;2022-08-11T16:58:17;2.17;;;1.90;;
6665;SDS011;3369;49.906;8.598;2022-08-11T17:01:04;1.90;;;1.80;;
6665;SDS011;3369;49.906;8.598;2022-08-11T17:03:31;1.80;;;1.70;;
6665;SDS011;3369;49.906;8.598;2022-08-11T17:06:16;1.77;;;1.67;;
6665;SDS011;3369;49.906;8.598;2022-08-11T17:09:04;1.98;;;1.88;;
6665;SDS011;3369;49.906;8.598;2022-08-11T17:11:50;1.85;;;1.75;;
6665;SDS011;3369;49.906;8.598;2022-08-11T17:14:57;2.80;;;1.75;;
6665;SDS011;3369;49.906;8.598;2022-08-11T17:17:27;1.77;;;1.67;;
6665;SDS011;3369;49.906;8.598;2022-08-11T17:20:00;1.80;;;1.70;;
6665;SDS011;3369;49.906;8.598;2022-08-11T17:22:31;5.00;;;1.83;;
6665;SDS011;3369;49.906;8.598;2022-08-11T17:25:18;3.33;;;2.10;;
6665;SDS011;3369;49.906;8.598;2022-08-11T17:27:45;2.22;;;1.80;;
6665;SDS011;3369;49.906;8.598;2022-08-11T17:30:12;2.03;;;1.92;;
6665;SDS011;3369;49.906;8.598;2022-08-11T17:32:40;1.83;;;1.67;;
6665;SDS011;3369;49.906;8.598;2022-08-11T17:35:35;1.77;;;1.67;;
6665;SDS011;3369;49.906;8.598;2022-08-11T17:38:08;1.90;;;1.70;;
6665;SDS011;3369;49.906;8.598;2022-08-11T17:40:38;1.75;;;1.40;;
6665;SDS011;3369;49.906;8.598;2022-08-11T17:43:26;1.60;;;1.50;;
6665;SDS011;3369;49.906;8.598;2022-08-11T17:46:13;1.65;;;1.55;;
6665;SDS011;3369;49.906;8.598;2022-08-11T17:49:01;1.63;;;1.52;;
6665;SDS011;3369;49.906;8.598;2022-08-11T17:51:31;1.50;;;1.30;;
6665;SDS011;3369;49.906;8.598;2022-08-11T17:54:16;1.70;;;1.60;;
6665;SDS011;3369;49.906;8.598;2022-08-11T17:57:02;2.05;;;1.50;;
6665;SDS011;3369;49.906;8.598;2022-08-11T17:59:47;1.92;;;1.73;;
6665;SDS011;3369;49.906;8.598;2022-08-11T18:02:21;3.05;;;1.90;;
6665;SDS011;3369;49.906;8.598;2022-08-11T18:05:12;2.28;;;1.70;;
6665;SDS011;3369;49.906;8.598;2022-08-11T18:07:40;2.00;;;1.80;;
6665;SDS011;3369;49.906;8.598;2022-08-11T18:10:27;3.40;;;2.00;;
6665;SDS011;3369;49.906;8.598;2022-08-11T18:13:17;1.77;;;1.67;;
6665;SDS011;3369;49.906;8.598;2022-08-11T18:16:04;1.65;;;1.55;;
6665;SDS011;3369;49.906;8.598;2022-08-11T18:18:50;1.75;;;1.65;;
6665;SDS011;3369;49.906;8.598;2022-08-11T18:21:35;1.80;;;1.70;;
6665;SDS011;3369;49.906;8.598;2022-08-11T18:24:22;1.60;;;1.50;;
6665;SDS011;3369;49.906;8.598;2022-08-11T18:27:10;1.42;;;1.33;;
6665;SDS011;3369;49.906;8.598;2022-08-11T18:29:55;1.52;;;1.42;;
6665;SDS011;3369;49.906;8.598;2022-08-11T18:32:43;1.92;;;1.50;;
6665;SDS011;3369;49.906;8.598;2022-08-11T18:35:29;1.30;;;1.20;;
6665;SDS011;3369;49.906;8.598;2022-08-11T18:38:16;1.25;;;1.25;;
6665;SDS011;3369;49.906;8.598;2022-08-11T18:41:01;1.65;;;1.48;;
6665;SDS011;3369;49.906;8.598;2022-08-11T18:43:47;1.40;;;1.30;;
6665;SDS011;3369;49.906;8.598;2022-08-11T18:46:34;1.88;;;1.58;;
6665;SDS011;3369;49.906;8.598;2022-08-11T18:49:22;1.42;;;1.33;;
6665;SDS011;3369;49.906;8.598;2022-08-11T18:52:10;1.52;;;1.42;;
6665;SDS011;3369;49.906;8.598;2022-08-11T18:54:57;1.70;;;1.60;;
6665;SDS011;3369;49.906;8.598;2022-08-11T18:57:45;2.00;;;1.90;;
6665;SDS011;3369;49.906;8.598;2022-08-11T19:00:31;1.90;;;1.80;;
6665;SDS011;3369;49.906;8.598;2022-08-11T19:03:18;1.70;;;1.60;;
6665;SDS011;3369;49.906;8.598;2022-08-11T19:06:04;1.92;;;1.70;;
6665;SDS011;3369;49.906;8.598;2022-08-11T19:08:52;1.70;;;1.60;;
6665;SDS011;3369;49.906;8.598;2022-08-11T19:11:40;2.20;;;2.00;;
6665;SDS011;3369;49.906;8.598;2022-08-11T19:14:25;1.88;;;1.77;;
6665;SDS011;3369;49.906;8.598;2022-08-11T19:17:12;3.83;;;2.42;;
6665;SDS011;3369;49.906;8.598;2022-08-11T19:19:58;3.88;;;2.47;;
6665;SDS011;3369;49.906;8.598;2022-08-11T19:22:44;2.00;;;1.90;;
6665;SDS011;3369;49.906;8.598;2022-08-11T19:25:30;2.15;;;1.95;;
6665;SDS011;3369;49.906;8.598;2022-08-11T19:28:15;1.73;;;1.63;;
6665;SDS011;3369;49.906;8.598;2022-08-11T19:31:01;1.88;;;1.70;;
6665;SDS011;3369;49.906;8.598;2022-08-11T19:33:46;1.50;;;1.40;;
6665;SDS011;3369;49.906;8.598;2022-08-11T19:36:31;1.40;;;1.30;;
6665;SDS011;3369;49.906;8.598;2022-08-11T19:39:17;1.88;;;1.33;;
6665;SDS011;3369;49.906;8.598;2022-08-11T19:42:02;1.38;;;1.38;;
6665;SDS011;3369;49.906;8.598;2022-08-11T19:44:49;1.35;;;1.25;;
6665;SDS011;3369;49.906;8.598;2022-08-11T19:47:34;1.33;;;1.23;;
6665;SDS011;3369;49.906;8.598;2022-08-11T19:50:19;1.40;;;1.30;;
6665;SDS011;3369;49.906;8.598;2022-08-11T19:53:03;1.67;;;1.58;;
6665;SDS011;3369;49.906;8.598;2022-08-11T19:55:50;1.45;;;1.35;;
6665;SDS011;3369;49.906;8.598;2022-08-11T19:58:36;1.45;;;1.35;;
6665;SDS011;3369;49.906;8.598;2022-08-11T20:01:21;2.70;;;1.80;;
6665;SDS011;3369;49.906;8.598;2022-08-11T20:04:06;2.20;;;1.60;;
6665;SDS011;3369;49.906;8.598;2022-08-11T20:06:50;1.70;;;1.60;;
6665;SDS011;3369;49.906;8.598;2022-08-11T20:09:37;1.50;;;1.40;;
6665;SDS011;3369;49.906;8.598;2022-08-11T20:12:24;1.58;;;1.30;;
6665;SDS011;3369;49.906;8.598;2022-08-11T20:15:10;1.42;;;1.33;;
6665;SDS011;3369;49.906;8.598;2022-08-11T20:17:55;1.60;;;1.50;;
6665;SDS011;3369;49.906;8.598;2022-08-11T20:20:41;1.40;;;1.30;;
6665;SDS011;3369;49.906;8.598;2022-08-11T20:23:25;1.20;;;1.20;;
6665;SDS011;3369;49.906;8.598;2022-08-11T20:26:11;1.38;;;1.27;;
6665;SDS011;3369;49.906;8.598;2022-08-11T20:28:55;1.67;;;1.55;;
6665;SDS011;3369;49.906;8.598;2022-08-11T20:31:41;1.80;;;1.70;;